createdAt,value
2022-08-12T00:02:05.036Z,2.40
2022-08-12T00:07:27.978Z,2.40
2022-08-12T00:12:49.977Z,2.75
2022-08-12T00:18:13.075Z,2.75
2022-08-12T00:23:34.658Z,3.10
2022-08-12T00:28:56.208Z,2.67
2022-08-12T00:34:17.941Z,2.45
2022-08-12T00:39:39.783Z,2.97
2022-08-12T00:44:45.135Z,2.60
2022-08-12T00:49:51.625Z,3.00
2022-08-12T00:55:00.425Z,2.87
2022-08-12T01:00:11.315Z,3.40
2022-08-12T01:05:35.650Z,2.15
2022-08-12T01:10:59.780Z,3.08
2022-08-12T01:16:07.864Z,2.47
2022-08-12T01:21:22.144Z,2.27
2022-08-12T01:26:26.208Z,2.75
2022-08-12T01:31:30.213Z,2.28
2022-08-12T01:36:56.461Z,2.60
2022-08-12T01:42:11.570Z,3.90
2022-08-12T01:47:32.946Z,3.33
2022-08-12T01:52:53.495Z,3.10
2022-08-12T01:58:18.365Z,2.72
2022-08-12T02:04:00.654Z,2.90
2022-08-12T02:09:23.816Z,2.97
2022-08-12T02:15:06.525Z,2.63
2022-08-12T02:20:34.279Z,2.70
2022-08-12T02:25:57.448Z,3.45
2022-08-12T02:31:05.688Z,3.00
2022-08-12T02:36:08.932Z,3.33
2022-08-12T02:41:13.557Z,3.27
2022-08-12T02:46:39.218Z,3.15
2022-08-12T02:51:45.448Z,3.70
2022-08-12T02:56:50.962Z,3.38
2022-08-12T03:02:04.816Z,3.72
2022-08-12T03:07:10.439Z,3.00
2022-08-12T03:12:19.997Z,3.65
2022-08-12T03:17:37.017Z,3.58
2022-08-12T03:22:40.962Z,3.15
2022-08-12T03:27:50.004Z,4.00
2022-08-12T03:32:54.267Z,3.77
2022-08-12T03:38:02.790Z,3.65
2022-08-12T03:43:27.805Z,3.42
2022-08-12T03:48:49.240Z,3.58
2022-08-12T03:54:11.609Z,3.60
2022-08-12T03:59:33.369Z,3.70
2022-08-12T04:04:36.299Z,4.05
2022-08-12T04:09:40.957Z,3.20
2022-08-12T04:14:43.789Z,4.53
2022-08-12T04:19:48.760Z,4.10
2022-08-12T04:24:54.213Z,4.33
2022-08-12T04:30:21.225Z,4.15
2022-08-12T04:35:21.867Z,4.38
2022-08-12T04:40:28.256Z,3.80
2022-08-12T04:45:33.631Z,4.43
2022-08-12T04:50:37.307Z,4.53
2022-08-12T04:55:42.533Z,4.68
2022-08-12T05:00:45.298Z,4.45
2022-08-12T05:05:49.117Z,5.03
2022-08-12T05:10:52.026Z,5.00
2022-08-12T05:16:05.673Z,5.27
2022-08-12T05:21:12.078Z,5.88
2022-08-12T05:26:15.359Z,5.63
2022-08-12T05:31:46.155Z,6.05
2022-08-12T05:36:45.026Z,5.47
2022-08-12T05:41:47.892Z,6.00
2022-08-12T05:46:50.645Z,5.72
2022-08-12T05:51:53.488Z,5.68
2022-08-12T05:56:56.358Z,5.55
2022-08-12T06:02:10.591Z,5.57
2022-08-12T06:08:02.179Z,5.40
2022-08-12T06:12:39.237Z,5.55
2022-08-12T06:17:42.323Z,6.55
2022-08-12T06:22:48.134Z,6.55
2022-08-12T06:28:06.294Z,5.80
2022-08-12T06:33:22.370Z,5.60
2022-08-12T06:38:27.788Z,6.15
2022-08-12T06:43:30.800Z,6.10
2022-08-12T06:48:59.461Z,6.82
2022-08-12T06:54:03.050Z,6.65
2022-08-12T06:59:06.175Z,6.90
2022-08-12T07:04:33.688Z,6.70
2022-08-12T07:10:01.370Z,6.70
2022-08-12T07:14:55.199Z,6.93
2022-08-12T07:20:03.480Z,5.55
2022-08-12T07:25:26.260Z,6.70
2022-08-12T07:30:30.953Z,7.00
2022-08-12T07:35:34.844Z,6.22
2022-08-12T07:40:37.724Z,5.88
2022-08-12T07:45:40.938Z,5.28
2022-08-12T07:50:44.012Z,6.30
2022-08-12T07:55:47.118Z,3.50
2022-08-12T08:00:50.299Z,5.03
2022-08-12T08:05:53.495Z,5.47
2022-08-12T08:11:17.907Z,5.47
2022-08-12T08:16:20.923Z,5.00
2022-08-12T08:21:27.591Z,5.20
2022-08-12T08:26:30.511Z,4.82
2022-08-12T08:31:37.539Z,4.10
2022-08-12T08:36:41.581Z,3.78
2022-08-12T08:42:16.938Z,4.00
2022-08-12T08:47:23.618Z,3.63
2022-08-12T08:52:39.289Z,3.72
2022-08-12T08:57:49.688Z,3.17
2022-08-12T09:02:59.206Z,3.40
2022-08-12T09:08:11.986Z,3.87
2022-08-12T09:14:10.505Z,3.30
2022-08-12T09:18:52.432Z,4.63
2022-08-12T09:24:07.563Z,4.18
2022-08-12T09:29:11.768Z,5.15
2022-08-12T09:34:26.427Z,4.60
2022-08-12T09:40:01.469Z,5.10
2022-08-12T09:45:18.867Z,4.70
2022-08-12T09:50:26.049Z,5.45
2022-08-12T09:56:06.574Z,5.45
2022-08-12T10:00:53.084Z,5.37
2022-08-12T10:06:27.410Z,5.15
2022-08-12T10:12:05.606Z,5.00
2022-08-12T10:17:01.554Z,5.32
2022-08-12T10:22:17.262Z,5.05
2022-08-12T10:28:04.941Z,4.83
2022-08-12T10:33:19.086Z,4.25
2022-08-12T10:38:34.602Z,4.20
2022-08-12T10:43:55.712Z,4.35
2022-08-12T10:49:06.701Z,4.78
2022-08-12T10:54:27.643Z,4.30
2022-08-12T11:00:29.713Z,4.28
2022-08-12T11:07:02.536Z,4.60
2022-08-12T11:10:26.597Z,5.03
2022-08-12T11:16:04.147Z,5.47
2022-08-12T11:20:57.823Z,4.27
2022-08-12T11:26:05.622Z,4.63
2022-08-12T11:31:14.132Z,4.28
2022-08-12T11:36:17.572Z,4.38
2022-08-12T11:41:31.042Z,4.50
2022-08-12T11:46:42.366Z,3.97
2022-08-12T11:51:45.231Z,4.40
2022-08-12T11:57:02.970Z,3.90
2022-08-12T12:02:25.439Z,3.60
2022-08-12T12:08:36.187Z,4.18
2022-08-12T12:12:51.801Z,4.33
2022-08-12T12:17:55.085Z,3.72
2022-08-12T12:22:58.865Z,3.63
2022-08-12T12:28:05.365Z,4.10
2022-08-12T12:33:10.932Z,4.47
2022-08-12T12:38:25.217Z,4.27
2022-08-12T12:43:42.922Z,4.50
2022-08-12T12:48:47.715Z,4.63
2022-08-12T12:54:06.647Z,5.05
2022-08-12T12:59:55.257Z,5.05
2022-08-12T13:04:37.209Z,5.37
2022-08-12T13:09:40.619Z,5.22
2022-08-12T13:14:49.471Z,4.13
2022-08-12T13:19:54.889Z,4.47
2022-08-12T13:25:00.034Z,4.80
2022-08-12T13:30:12.741Z,5.03
2022-08-12T13:35:19.970Z,4.30
2022-08-12T13:40:40.184Z,3.92
2022-08-12T13:45:43.893Z,4.38
2022-08-12T13:50:47.704Z,4.15
2022-08-12T13:55:59.657Z,4.50
2022-08-12T14:01:06.452Z,4.30
2022-08-12T14:06:15.459Z,4.10
2022-08-12T14:11:25.105Z,3.95
2022-08-12T14:16:47.032Z,3.80
2022-08-12T14:21:59.229Z,3.43
2022-08-12T14:27:09.240Z,3.60
2022-08-12T14:32:16.628Z,3.50
2022-08-12T14:37:57.363Z,3.65
2022-08-12T14:42:43.138Z,3.30
2022-08-12T14:47:58.324Z,3.30
2022-08-12T14:58:25.428Z,3.55
2022-08-12T15:03:46.634Z,3.70
2022-08-12T15:08:53.067Z,3.97
2022-08-12T15:13:56.127Z,4.10
2022-08-12T15:18:59.193Z,4.22
2022-08-12T15:24:03.844Z,4.53
2022-08-12T15:29:10.451Z,4.35
2022-08-12T15:34:14.386Z,4.25
2022-08-12T15:39:18.231Z,4.40
2022-08-12T15:44:38.191Z,4.40
2022-08-12T15:50:00.694Z,4.45
2022-08-12T15:55:05.982Z,4.38
2022-08-12T16:00:31.564Z,4.10
2022-08-12T16:06:16.849Z,4.40
2022-08-12T16:11:16.089Z,4.90
2022-08-12T16:16:24.533Z,4.60
2022-08-12T16:21:51.991Z,4.70
2022-08-12T16:26:54.305Z,4.82
2022-08-12T16:31:59.025Z,4.90
2022-08-12T16:37:04.773Z,4.80
2022-08-12T16:42:10.232Z,4.82
2022-08-12T16:47:14.577Z,4.63
2022-08-12T16:52:18.693Z,4.25
2022-08-12T16:57:42.988Z,5.37
2022-08-12T17:02:50.691Z,5.50
2022-08-12T17:08:01.362Z,4.90
2022-08-12T17:13:10.258Z,5.13
2022-08-12T17:18:39.409Z,5.32
2022-08-12T17:23:52.813Z,5.40
2022-08-12T17:29:00.300Z,5.55
2022-08-12T17:34:07.275Z,5.10
2022-08-12T17:39:21.509Z,5.68
2022-08-12T17:44:26.514Z,4.93
2022-08-12T17:50:02.945Z,4.80
2022-08-12T17:54:59.742Z,4.80
2022-08-12T18:00:05.521Z,4.20
2022-08-12T18:05:10.017Z,4.38
2022-08-12T18:10:35.972Z,4.90
2022-08-12T18:16:06.101Z,4.80
2022-08-12T18:21:05.117Z,4.70
2022-08-12T18:26:26.721Z,6.82
2022-08-12T18:31:43.780Z,6.60
2022-08-12T18:36:54.060Z,6.00
2022-08-12T18:41:59.751Z,5.70
2022-08-12T18:47:05.782Z,6.88
2022-08-12T18:52:12.310Z,6.55
2022-08-12T18:57:19.770Z,6.80
2022-08-12T19:02:40.929Z,7.75
2022-08-12T19:08:00.664Z,7.30
2022-08-12T19:13:25.246Z,6.97
2022-08-12T19:18:39.873Z,6.53
2022-08-12T19:23:43.571Z,6.75
2022-08-12T19:28:47.990Z,7.45
2022-08-12T19:34:21.556Z,7.27
2022-08-12T19:39:15.390Z,7.88
2022-08-12T19:44:27.377Z,7.80
2022-08-12T19:49:30.429Z,7.60
2022-08-12T19:54:34.728Z,7.85
2022-08-12T19:59:43.157Z,7.13
2022-08-12T20:06:04.820Z,8.07
2022-08-12T20:10:35.590Z,8.85
2022-08-12T20:15:44.455Z,9.80
2022-08-12T20:20:48.202Z,10.82
2022-08-12T20:25:53.482Z,10.97
2022-08-12T20:31:01.829Z,11.52
2022-08-12T20:36:13.734Z,11.80
2022-08-12T20:41:32.565Z,9.15
2022-08-12T20:46:35.659Z,8.65
2022-08-12T20:51:50.990Z,8.20
2022-08-12T20:56:58.297Z,7.78
2022-08-12T21:02:04.649Z,7.55
2022-08-12T21:07:10.432Z,8.10
2022-08-12T21:12:27.957Z,6.97
2022-08-12T21:18:08.858Z,7.30
2022-08-12T21:22:57.398Z,7.10
2022-08-12T21:28:01.374Z,7.22
2022-08-12T21:33:05.077Z,7.07
2022-08-12T21:38:17.391Z,7.05
2022-08-12T21:43:21.850Z,6.50
2022-08-12T21:48:25.707Z,6.93
2022-08-12T21:53:31.765Z,6.45
2022-08-12T21:58:51.759Z,6.38
2022-08-12T22:04:13.060Z,6.45
2022-08-12T22:09:17.643Z,6.23
2022-08-12T22:14:23.712Z,6.63
2022-08-12T22:19:27.229Z,6.40
2022-08-12T22:24:30.905Z,6.43
2022-08-12T22:29:52.194Z,6.97
2022-08-12T22:35:24.227Z,6.07
2022-08-12T22:40:32.378Z,6.40
2022-08-12T22:45:56.561Z,6.50
2022-08-12T22:51:01.929Z,6.97
2022-08-12T22:56:09.571Z,6.97
2022-08-12T23:01:21.148Z,6.60
2022-08-12T23:06:25.837Z,6.65
2022-08-12T23:11:40.506Z,6.85
2022-08-12T23:16:45.493Z,6.22
2022-08-12T23:22:06.331Z,6.40
2022-08-12T23:27:50.119Z,6.37
2022-08-12T23:33:00.085Z,6.70
2022-08-12T23:38:03.348Z,6.38
2022-08-12T23:43:06.157Z,7.10
2022-08-12T23:48:09.117Z,6.68
2022-08-12T23:53:32.812Z,6.90
2022-08-12T23:58:35.723Z,7.60
